sensor_id;sensor_type;location;lat;lon;timestamp;temperature;humidity
68990;DHT22;56046;47.270;11.368;2022-10-04T00:03:22;10.34;85.78
68990;DHT22;56046;47.270;11.368;2022-10-04T00:05:52;10.33;86.66
68990;DHT22;56046;47.270;11.368;2022-10-04T00:10:47;10.48;86.19
68990;DHT22;56046;47.270;11.368;2022-10-04T00:13:23;10.43;86.39
68990;DHT22;56046;47.270;11.368;2022-10-04T00:15:49;10.45;86.41
68990;DHT22;56046;47.270;11.368;2022-10-04T00:31:24;10.53;86.12
68990;DHT22;56046;47.270;11.368;2022-10-04T00:33:57;10.50;85.86
68990;DHT22;56046;47.270;11.368;2022-10-04T00:37:00;10.44;86.06
68990;DHT22;56046;47.270;11.368;2022-10-04T00:42:05;10.33;86.45
68990;DHT22;56046;47.270;11.368;2022-10-04T00:44:47;10.26;86.74
68990;DHT22;56046;47.270;11.368;2022-10-04T00:50:43;10.14;87.71
68990;DHT22;56046;47.270;11.368;2022-10-04T00:53:34;10.18;87.77
68990;DHT22;56046;47.270;11.368;2022-10-04T00:56:02;10.18;88.10
68990;DHT22;56046;47.270;11.368;2022-10-04T00:58:45;10.13;88.18
68990;DHT22;56046;47.270;11.368;2022-10-04T01:01:12;10.17;88.09
68990;DHT22;56046;47.270;11.368;2022-10-04T01:03:40;10.16;87.95
68990;DHT22;56046;47.270;11.368;2022-10-04T01:06:09;10.12;88.01
68990;DHT22;56046;47.270;11.368;2022-10-04T01:08:39;10.10;87.88
68990;DHT22;56046;47.270;11.368;2022-10-04T01:11:14;10.12;87.68
68990;DHT22;56046;47.270;11.368;2022-10-04T01:14:07;10.16;87.84
68990;DHT22;56046;47.270;11.368;2022-10-04T01:16:36;10.10;88.21
68990;DHT22;56046;47.270;11.368;2022-10-04T01:19:31;10.10;88.17
68990;DHT22;56046;47.270;11.368;2022-10-04T01:22:36;10.13;88.15
68990;DHT22;56046;47.270;11.368;2022-10-04T01:25:04;10.13;88.08
68990;DHT22;56046;47.270;11.368;2022-10-04T01:27:34;10.14;87.99
68990;DHT22;56046;47.270;11.368;2022-10-04T01:30:01;10.17;87.77
68990;DHT22;56046;47.270;11.368;2022-10-04T01:32:27;10.18;87.95
68990;DHT22;56046;47.270;11.368;2022-10-04T01:34:55;10.16;87.93
68990;DHT22;56046;47.270;11.368;2022-10-04T01:37:21;10.17;87.83
68990;DHT22;56046;47.270;11.368;2022-10-04T01:39:46;10.14;87.89
68990;DHT22;56046;47.270;11.368;2022-10-04T01:42:14;10.12;87.92
68990;DHT22;56046;47.270;11.368;2022-10-04T01:47:40;10.21;88.12
68990;DHT22;56046;47.270;11.368;2022-10-04T01:50:12;10.16;87.55
68990;DHT22;56046;47.270;11.368;2022-10-04T01:52:42;10.16;87.73
68990;DHT22;56046;47.270;11.368;2022-10-04T01:55:13;10.20;87.62
68990;DHT22;56046;47.270;11.368;2022-10-04T01:58:17;10.13;87.86
68990;DHT22;56046;47.270;11.368;2022-10-04T02:00:56;10.17;87.63
68990;DHT22;56046;47.270;11.368;2022-10-04T02:03:32;10.12;87.73
68990;DHT22;56046;47.270;11.368;2022-10-04T02:06:00;10.02;88.14
68990;DHT22;56046;47.270;11.368;2022-10-04T02:08:30;10.06;87.94
68990;DHT22;56046;47.270;11.368;2022-10-04T02:10:59;10.17;87.89
68990;DHT22;56046;47.270;11.368;2022-10-04T02:13:27;10.17;88.03
68990;DHT22;56046;47.270;11.368;2022-10-04T02:15:57;10.16;87.97
68990;DHT22;56046;47.270;11.368;2022-10-04T02:18:24;10.29;87.88
68990;DHT22;56046;47.270;11.368;2022-10-04T02:20:50;10.27;87.77
68990;DHT22;56046;47.270;11.368;2022-10-04T02:23:18;10.26;87.62
68990;DHT22;56046;47.270;11.368;2022-10-04T02:25:44;10.30;87.29
68990;DHT22;56046;47.270;11.368;2022-10-04T02:28:11;10.36;87.12
68990;DHT22;56046;47.270;11.368;2022-10-04T02:30:40;10.33;87.16
68990;DHT22;56046;47.270;11.368;2022-10-04T02:33:06;10.32;87.32
68990;DHT22;56046;47.270;11.368;2022-10-04T02:35:37;10.32;87.43
68990;DHT22;56046;47.270;11.368;2022-10-04T02:38:19;10.30;87.22
68990;DHT22;56046;47.270;11.368;2022-10-04T02:40:49;10.33;86.90
68990;DHT22;56046;47.270;11.368;2022-10-04T02:51:25;10.09;87.19
68990;DHT22;56046;47.270;11.368;2022-10-04T02:54:13;10.10;87.16
68990;DHT22;56046;47.270;11.368;2022-10-04T02:56:41;10.06;87.29
68990;DHT22;56046;47.270;11.368;2022-10-04T02:59:07;10.03;87.23
68990;DHT22;56046;47.270;11.368;2022-10-04T03:01:49;10.07;87.31
68990;DHT22;56046;47.270;11.368;2022-10-04T03:04:15;10.12;87.10
68990;DHT22;56046;47.270;11.368;2022-10-04T03:06:43;10.14;86.93
68990;DHT22;56046;47.270;11.368;2022-10-04T03:09:13;10.16;86.86
68990;DHT22;56046;47.270;11.368;2022-10-04T03:11:39;10.13;86.87
68990;DHT22;56046;47.270;11.368;2022-10-04T03:14:14;10.16;86.87
68990;DHT22;56046;47.270;11.368;2022-10-04T03:16:43;10.14;86.74
68990;DHT22;56046;47.270;11.368;2022-10-04T03:19:10;10.16;86.60
68990;DHT22;56046;47.270;11.368;2022-10-04T03:21:37;10.21;86.67
68990;DHT22;56046;47.270;11.368;2022-10-04T03:24:05;10.17;86.63
68990;DHT22;56046;47.270;11.368;2022-10-04T03:26:36;10.18;86.60
68990;DHT22;56046;47.270;11.368;2022-10-04T03:29:05;10.18;86.37
68990;DHT22;56046;47.270;11.368;2022-10-04T03:31:38;10.20;86.41
68990;DHT22;56046;47.270;11.368;2022-10-04T03:34:12;10.20;86.46
68990;DHT22;56046;47.270;11.368;2022-10-04T03:36:39;10.20;86.07
68990;DHT22;56046;47.270;11.368;2022-10-04T03:39:06;10.20;85.85
68990;DHT22;56046;47.270;11.368;2022-10-04T03:41:37;10.16;85.57
68990;DHT22;56046;47.270;11.368;2022-10-04T03:44:03;10.13;85.88
68990;DHT22;56046;47.270;11.368;2022-10-04T03:46:30;10.10;86.19
68990;DHT22;56046;47.270;11.368;2022-10-04T03:48:57;10.09;86.33
68990;DHT22;56046;47.270;11.368;2022-10-04T03:51:25;10.12;85.32
68990;DHT22;56046;47.270;11.368;2022-10-04T03:53:59;10.05;84.46
68990;DHT22;56046;47.270;11.368;2022-10-04T03:56:29;10.02;84.72
68990;DHT22;56046;47.270;11.368;2022-10-04T03:58:56;10.00;84.84
68990;DHT22;56046;47.270;11.368;2022-10-04T04:07:06;9.99;85.51
68990;DHT22;56046;47.270;11.368;2022-10-04T04:09:44;9.93;86.71
68990;DHT22;56046;47.270;11.368;2022-10-04T04:12:25;9.88;86.99
68990;DHT22;56046;47.270;11.368;2022-10-04T04:14:53;9.93;86.98
68990;DHT22;56046;47.270;11.368;2022-10-04T04:19:52;9.95;86.64
68990;DHT22;56046;47.270;11.368;2022-10-04T04:22:19;9.99;86.35
68990;DHT22;56046;47.270;11.368;2022-10-04T04:24:45;10.05;85.79
68990;DHT22;56046;47.270;11.368;2022-10-04T04:27:12;9.96;85.81
68990;DHT22;56046;47.270;11.368;2022-10-04T04:29:51;9.93;85.89
68990;DHT22;56046;47.270;11.368;2022-10-04T04:32:50;9.90;86.00
68990;DHT22;56046;47.270;11.368;2022-10-04T04:35:30;9.81;86.10
68990;DHT22;56046;47.270;11.368;2022-10-04T04:38:21;9.71;86.42
68990;DHT22;56046;47.270;11.368;2022-10-04T04:40:49;9.55;87.32
68990;DHT22;56046;47.270;11.368;2022-10-04T04:43:18;9.50;87.74
68990;DHT22;56046;47.270;11.368;2022-10-04T04:45:45;9.38;87.94
68990;DHT22;56046;47.270;11.368;2022-10-04T04:48:15;9.35;88.12
68990;DHT22;56046;47.270;11.368;2022-10-04T04:50:41;9.20;88.75
68990;DHT22;56046;47.270;11.368;2022-10-04T04:55:50;9.06;89.13
68990;DHT22;56046;47.270;11.368;2022-10-04T04:58:19;8.92;89.28
68990;DHT22;56046;47.270;11.368;2022-10-04T05:01:01;8.80;89.85
68990;DHT22;56046;47.270;11.368;2022-10-04T05:03:28;8.73;90.41
68990;DHT22;56046;47.270;11.368;2022-10-04T05:05:58;8.69;90.40
68990;DHT22;56046;47.270;11.368;2022-10-04T05:08:29;8.62;91.00
68990;DHT22;56046;47.270;11.368;2022-10-04T05:13:49;8.73;91.95
68990;DHT22;56046;47.270;11.368;2022-10-04T05:16:21;8.83;91.37
68990;DHT22;56046;47.270;11.368;2022-10-04T05:18:55;8.94;90.85
68990;DHT22;56046;47.270;11.368;2022-10-04T05:21:25;8.99;90.77
68990;DHT22;56046;47.270;11.368;2022-10-04T05:23:51;8.99;90.06
68990;DHT22;56046;47.270;11.368;2022-10-04T05:26:28;9.03;89.55
68990;DHT22;56046;47.270;11.368;2022-10-04T05:29:01;9.06;89.32
68990;DHT22;56046;47.270;11.368;2022-10-04T05:34:42;9.17;88.89
68990;DHT22;56046;47.270;11.368;2022-10-04T05:42:42;9.31;88.88
68990;DHT22;56046;47.270;11.368;2022-10-04T05:45:29;9.37;88.80
68990;DHT22;56046;47.270;11.368;2022-10-04T05:47:57;9.51;88.63
68990;DHT22;56046;47.270;11.368;2022-10-04T05:50:33;9.63;88.31
68990;DHT22;56046;47.270;11.368;2022-10-04T06:04:30;10.54;85.48
68990;DHT22;56046;47.270;11.368;2022-10-04T06:07:03;10.60;84.47
68990;DHT22;56046;47.270;11.368;2022-10-04T06:09:55;10.73;83.85
68990;DHT22;56046;47.270;11.368;2022-10-04T06:23:34;11.26;81.57
68990;DHT22;56046;47.270;11.368;2022-10-04T06:26:12;11.34;81.44
68990;DHT22;56046;47.270;11.368;2022-10-04T06:28:57;11.43;81.46
68990;DHT22;56046;47.270;11.368;2022-10-04T06:45:21;12.15;76.23
68990;DHT22;56046;47.270;11.368;2022-10-04T06:56:07;12.57;76.53
68990;DHT22;56046;47.270;11.368;2022-10-04T07:09:22;13.25;73.97
68990;DHT22;56046;47.270;11.368;2022-10-04T07:12:00;13.39;73.25
68990;DHT22;56046;47.270;11.368;2022-10-04T07:14:34;13.53;73.03
68990;DHT22;56046;47.270;11.368;2022-10-04T07:17:04;13.61;71.70
68990;DHT22;56046;47.270;11.368;2022-10-04T07:19:48;13.71;72.10
68990;DHT22;56046;47.270;11.368;2022-10-04T07:22:21;13.95;71.89
68990;DHT22;56046;47.270;11.368;2022-10-04T07:30:51;14.62;69.39
68990;DHT22;56046;47.270;11.368;2022-10-04T07:33:21;14.71;69.43
68990;DHT22;56046;47.270;11.368;2022-10-04T07:35:53;14.88;70.05
68990;DHT22;56046;47.270;11.368;2022-10-04T07:38:26;15.07;69.60
68990;DHT22;56046;47.270;11.368;2022-10-04T07:41:21;14.81;69.02
68990;DHT22;56046;47.270;11.368;2022-10-04T07:43:54;14.90;68.70
68990;DHT22;56046;47.270;11.368;2022-10-04T07:49:18;13.84;71.13
68990;DHT22;56046;47.270;11.368;2022-10-04T07:54:50;14.83;70.44
68990;DHT22;56046;47.270;11.368;2022-10-04T07:57:32;14.60;69.16
68990;DHT22;56046;47.270;11.368;2022-10-04T08:00:18;15.01;69.97
68990;DHT22;56046;47.270;11.368;2022-10-04T08:13:36;14.42;68.98
68990;DHT22;56046;47.270;11.368;2022-10-04T08:16:15;14.49;69.32
68990;DHT22;56046;47.270;11.368;2022-10-04T08:21:16;14.69;68.56
68990;DHT22;56046;47.270;11.368;2022-10-04T08:26:39;14.92;67.74
68990;DHT22;56046;47.270;11.368;2022-10-04T08:29:20;15.11;66.36
68990;DHT22;56046;47.270;11.368;2022-10-04T08:35:04;15.14;64.99
68990;DHT22;56046;47.270;11.368;2022-10-04T09:20:59;15.80;58.96
68990;DHT22;56046;47.270;11.368;2022-10-04T09:34:22;16.58;60.50
68990;DHT22;56046;47.270;11.368;2022-10-04T09:45:47;17.28;55.98
68990;DHT22;56046;47.270;11.368;2022-10-04T09:48:39;17.32;56.90
68990;DHT22;56046;47.270;11.368;2022-10-04T09:54:14;17.36;56.26
68990;DHT22;56046;47.270;11.368;2022-10-04T10:00:05;17.58;55.86
68990;DHT22;56046;47.270;11.368;2022-10-04T10:02:42;17.36;56.23
68990;DHT22;56046;47.270;11.368;2022-10-04T10:24:02;17.79;55.93
68990;DHT22;56046;47.270;11.368;2022-10-04T10:32:16;18.01;53.41
68990;DHT22;56046;47.270;11.368;2022-10-04T10:43:08;17.48;56.55
68990;DHT22;56046;47.270;11.368;2022-10-04T10:48:41;17.69;56.76
68990;DHT22;56046;47.270;11.368;2022-10-04T10:51:15;17.68;55.47
68990;DHT22;56046;47.270;11.368;2022-10-04T11:00:12;18.44;54.34
68990;DHT22;56046;47.270;11.368;2022-10-04T11:13:56;19.27;52.45
68990;DHT22;56046;47.270;11.368;2022-10-04T11:31:52;19.57;49.33
68990;DHT22;56046;47.270;11.368;2022-10-04T11:43:09;19.71;48.56
68990;DHT22;56046;47.270;11.368;2022-10-04T11:46:06;19.85;48.28
68990;DHT22;56046;47.270;11.368;2022-10-04T12:02:05;19.99;49.77
68990;DHT22;56046;47.270;11.368;2022-10-04T12:39:31;18.00;53.07
68990;DHT22;56046;47.270;11.368;2022-10-04T12:47:40;17.38;55.52
68990;DHT22;56046;47.270;11.368;2022-10-04T12:58:23;17.49;55.56
68990;DHT22;56046;47.270;11.368;2022-10-04T13:00:52;17.52;56.08
68990;DHT22;56046;47.270;11.368;2022-10-04T13:03:57;17.58;55.74
68990;DHT22;56046;47.270;11.368;2022-10-04T13:06:22;17.69;56.22
68990;DHT22;56046;47.270;11.368;2022-10-04T13:08:57;17.70;55.90
68990;DHT22;56046;47.270;11.368;2022-10-04T13:11:45;17.72;55.24
68990;DHT22;56046;47.270;11.368;2022-10-04T13:14:39;17.70;55.30
68990;DHT22;56046;47.270;11.368;2022-10-04T13:17:31;17.76;54.99
68990;DHT22;56046;47.270;11.368;2022-10-04T13:20:18;17.79;55.54
68990;DHT22;56046;47.270;11.368;2022-10-04T13:23:09;17.72;55.19
68990;DHT22;56046;47.270;11.368;2022-10-04T13:25:56;17.83;54.83
68990;DHT22;56046;47.270;11.368;2022-10-04T13:40:24;17.97;55.49
68990;DHT22;56046;47.270;11.368;2022-10-04T13:51:13;18.10;53.73
68990;DHT22;56046;47.270;11.368;2022-10-04T13:57:05;18.01;53.61
68990;DHT22;56046;47.270;11.368;2022-10-04T13:59:58;18.07;54.04
68990;DHT22;56046;47.270;11.368;2022-10-04T14:02:41;18.10;51.98
68990;DHT22;56046;47.270;11.368;2022-10-04T14:05:22;18.16;52.83
68990;DHT22;56046;47.270;11.368;2022-10-04T14:14:21;18.16;54.56
68990;DHT22;56046;47.270;11.368;2022-10-04T14:17:23;18.13;53.84
68990;DHT22;56046;47.270;11.368;2022-10-04T14:20:52;18.16;52.96
68990;DHT22;56046;47.270;11.368;2022-10-04T14:31:52;17.87;54.98
68990;DHT22;56046;47.270;11.368;2022-10-04T14:40:25;17.59;55.19
68990;DHT22;56046;47.270;11.368;2022-10-04T14:45:27;17.39;55.71
68990;DHT22;56046;47.270;11.368;2022-10-04T14:51:02;17.36;57.77
68990;DHT22;56046;47.270;11.368;2022-10-04T14:54:56;17.32;57.59
68990;DHT22;56046;47.270;11.368;2022-10-04T14:57:06;17.31;59.39
68990;DHT22;56046;47.270;11.368;2022-10-04T14:59:49;17.24;59.48
68990;DHT22;56046;47.270;11.368;2022-10-04T15:02:38;17.25;59.47
68990;DHT22;56046;47.270;11.368;2022-10-04T15:10:55;17.18;61.38
68990;DHT22;56046;47.270;11.368;2022-10-04T15:18:45;16.68;68.56
68990;DHT22;56046;47.270;11.368;2022-10-04T15:21:32;16.38;69.74
68990;DHT22;56046;47.270;11.368;2022-10-04T15:24:19;16.29;69.59
68990;DHT22;56046;47.270;11.368;2022-10-04T15:29:55;16.15;71.28
68990;DHT22;56046;47.270;11.368;2022-10-04T15:37:55;15.69;72.71
68990;DHT22;56046;47.270;11.368;2022-10-04T15:43:19;15.42;74.21
68990;DHT22;56046;47.270;11.368;2022-10-04T15:48:35;15.14;75.13
68990;DHT22;56046;47.270;11.368;2022-10-04T15:51:09;14.91;75.82
68990;DHT22;56046;47.270;11.368;2022-10-04T15:54:06;14.80;76.49
68990;DHT22;56046;47.270;11.368;2022-10-04T16:06:57;14.28;78.50
68990;DHT22;56046;47.270;11.368;2022-10-04T16:09:47;14.12;77.64
68990;DHT22;56046;47.270;11.368;2022-10-04T16:12:27;13.94;78.50
68990;DHT22;56046;47.270;11.368;2022-10-04T16:17:55;13.77;79.41
68990;DHT22;56046;47.270;11.368;2022-10-04T16:23:27;13.61;79.92
68990;DHT22;56046;47.270;11.368;2022-10-04T16:31:46;13.42;80.52
68990;DHT22;56046;47.270;11.368;2022-10-04T16:39:59;13.26;80.10
68990;DHT22;56046;47.270;11.368;2022-10-04T16:42:58;13.15;79.99
68990;DHT22;56046;47.270;11.368;2022-10-04T16:56:25;12.85;80.41
68990;DHT22;56046;47.270;11.368;2022-10-04T16:59:14;12.75;80.82
68990;DHT22;56046;47.270;11.368;2022-10-04T17:02:18;12.63;80.86
68990;DHT22;56046;47.270;11.368;2022-10-04T17:10:38;12.49;81.24
68990;DHT22;56046;47.270;11.368;2022-10-04T17:21:40;12.16;82.54
68990;DHT22;56046;47.270;11.368;2022-10-04T17:30:21;12.08;82.32
68990;DHT22;56046;47.270;11.368;2022-10-04T17:38:16;11.86;83.35
68990;DHT22;56046;47.270;11.368;2022-10-04T17:43:32;11.73;83.71
68990;DHT22;56046;47.270;11.368;2022-10-04T17:48:30;11.67;84.23
68990;DHT22;56046;47.270;11.368;2022-10-04T17:51:42;11.55;84.63
68990;DHT22;56046;47.270;11.368;2022-10-04T17:54:39;11.55;84.97
68990;DHT22;56046;47.270;11.368;2022-10-04T18:00:23;11.57;84.99
68990;DHT22;56046;47.270;11.368;2022-10-04T18:03:00;11.57;85.01
68990;DHT22;56046;47.270;11.368;2022-10-04T18:05:56;11.48;85.39
68990;DHT22;56046;47.270;11.368;2022-10-04T18:17:34;11.31;85.92
68990;DHT22;56046;47.270;11.368;2022-10-04T18:22:57;11.29;86.27
68990;DHT22;56046;47.270;11.368;2022-10-04T18:25:25;11.26;86.43
68990;DHT22;56046;47.270;11.368;2022-10-04T18:30:32;11.09;87.13
68990;DHT22;56046;47.270;11.368;2022-10-04T18:32:59;11.10;87.26
68990;DHT22;56046;47.270;11.368;2022-10-04T18:35:29;11.09;87.27
68990;DHT22;56046;47.270;11.368;2022-10-04T18:38:14;10.96;87.62
68990;DHT22;56046;47.270;11.368;2022-10-04T18:41:01;10.88;87.55
68990;DHT22;56046;47.270;11.368;2022-10-04T18:43:39;10.86;87.70
68990;DHT22;56046;47.270;11.368;2022-10-04T18:49:00;10.92;87.39
68990;DHT22;56046;47.270;11.368;2022-10-04T18:51:36;10.83;87.60
68990;DHT22;56046;47.270;11.368;2022-10-04T18:54:37;10.95;87.47
68990;DHT22;56046;47.270;11.368;2022-10-04T19:00:20;10.68;87.71
68990;DHT22;56046;47.270;11.368;2022-10-04T19:09:10;10.69;87.37
68990;DHT22;56046;47.270;11.368;2022-10-04T19:14:32;10.57;87.95
68990;DHT22;56046;47.270;11.368;2022-10-04T19:28:01;10.32;88.83
68990;DHT22;56046;47.270;11.368;2022-10-04T19:33:26;10.41;87.83
68990;DHT22;56046;47.270;11.368;2022-10-04T19:39:24;10.26;88.53
68990;DHT22;56046;47.270;11.368;2022-10-04T19:42:00;10.23;88.94
68990;DHT22;56046;47.270;11.368;2022-10-04T19:50:00;10.09;89.01
68990;DHT22;56046;47.270;11.368;2022-10-04T19:55:20;9.83;90.20
68990;DHT22;56046;47.270;11.368;2022-10-04T19:58:32;9.82;90.04
68990;DHT22;56046;47.270;11.368;2022-10-04T20:00:38;9.92;89.55
68990;DHT22;56046;47.270;11.368;2022-10-04T20:03:09;9.97;89.36
68990;DHT22;56046;47.270;11.368;2022-10-04T20:05:41;9.85;89.84
68990;DHT22;56046;47.270;11.368;2022-10-04T20:08:10;9.75;90.52
68990;DHT22;56046;47.270;11.368;2022-10-04T20:10:37;9.69;90.72
68990;DHT22;56046;47.270;11.368;2022-10-04T20:13:21;9.63;90.87
68990;DHT22;56046;47.270;11.368;2022-10-04T20:15:55;9.50;91.36
68990;DHT22;56046;47.270;11.368;2022-10-04T20:26:35;9.40;91.52
68990;DHT22;56046;47.270;11.368;2022-10-04T20:32:07;9.47;91.28
68990;DHT22;56046;47.270;11.368;2022-10-04T20:37:05;9.42;91.26
68990;DHT22;56046;47.270;11.368;2022-10-04T20:42:10;9.48;90.74
68990;DHT22;56046;47.270;11.368;2022-10-04T20:47:54;9.54;90.61
68990;DHT22;56046;47.270;11.368;2022-10-04T20:50:38;9.58;90.42
68990;DHT22;56046;47.270;11.368;2022-10-04T20:55:42;9.37;91.13
68990;DHT22;56046;47.270;11.368;2022-10-04T20:58:31;9.41;91.10
68990;DHT22;56046;47.270;11.368;2022-10-04T21:01:15;9.38;91.22
68990;DHT22;56046;47.270;11.368;2022-10-04T21:07:16;9.12;92.29
68990;DHT22;56046;47.270;11.368;2022-10-04T21:09:42;9.13;92.13
68990;DHT22;56046;47.270;11.368;2022-10-04T21:17:37;9.00;92.51
68990;DHT22;56046;47.270;11.368;2022-10-04T21:20:04;9.07;92.03
68990;DHT22;56046;47.270;11.368;2022-10-04T21:22:32;9.03;92.43
68990;DHT22;56046;47.270;11.368;2022-10-04T21:25:45;9.07;92.36
68990;DHT22;56046;47.270;11.368;2022-10-04T21:27:46;9.20;92.00
68990;DHT22;56046;47.270;11.368;2022-10-04T21:30:13;9.21;91.81
68990;DHT22;56046;47.270;11.368;2022-10-04T21:32:39;9.17;91.82
68990;DHT22;56046;47.270;11.368;2022-10-04T21:35:09;9.17;91.76
68990;DHT22;56046;47.270;11.368;2022-10-04T21:37:35;9.23;91.47
68990;DHT22;56046;47.270;11.368;2022-10-04T21:40:02;9.21;91.52
68990;DHT22;56046;47.270;11.368;2022-10-04T21:42:28;9.28;91.42
68990;DHT22;56046;47.270;11.368;2022-10-04T21:44:53;9.26;91.28
68990;DHT22;56046;47.270;11.368;2022-10-04T21:47:19;9.20;91.52
68990;DHT22;56046;47.270;11.368;2022-10-04T21:49:48;9.16;91.93
68990;DHT22;56046;47.270;11.368;2022-10-04T21:52:14;9.13;91.91
68990;DHT22;56046;47.270;11.368;2022-10-04T21:54:42;9.10;92.00
68990;DHT22;56046;47.270;11.368;2022-10-04T21:57:08;9.14;92.25
68990;DHT22;56046;47.270;11.368;2022-10-04T21:59:34;9.07;92.14
68990;DHT22;56046;47.270;11.368;2022-10-04T22:02:00;9.03;92.61
68990;DHT22;56046;47.270;11.368;2022-10-04T22:04:25;9.02;92.34
68990;DHT22;56046;47.270;11.368;2022-10-04T22:06:51;8.92;92.11
68990;DHT22;56046;47.270;11.368;2022-10-04T22:09:17;8.89;92.13
68990;DHT22;56046;47.270;11.368;2022-10-04T22:11:42;8.82;92.16
68990;DHT22;56046;47.270;11.368;2022-10-04T22:14:08;8.72;92.21
68990;DHT22;56046;47.270;11.368;2022-10-04T22:16:34;8.62;92.36
68990;DHT22;56046;47.270;11.368;2022-10-04T22:18:59;8.52;92.81
68990;DHT22;56046;47.270;11.368;2022-10-04T22:21:25;8.48;93.00
68990;DHT22;56046;47.270;11.368;2022-10-04T22:23:51;8.54;92.75
68990;DHT22;56046;47.270;11.368;2022-10-04T22:26:19;8.44;92.92
68990;DHT22;56046;47.270;11.368;2022-10-04T22:28:48;8.42;92.62
68990;DHT22;56046;47.270;11.368;2022-10-04T22:31:19;8.36;93.12
68990;DHT22;56046;47.270;11.368;2022-10-04T22:33:48;8.26;93.56
68990;DHT22;56046;47.270;11.368;2022-10-04T22:36:21;8.24;93.78
68990;DHT22;56046;47.270;11.368;2022-10-04T22:38:54;8.24;93.87
68990;DHT22;56046;47.270;11.368;2022-10-04T22:41:21;8.17;93.71
68990;DHT22;56046;47.270;11.368;2022-10-04T22:43:48;8.20;93.69
68990;DHT22;56046;47.270;11.368;2022-10-04T22:46:17;8.24;93.80
68990;DHT22;56046;47.270;11.368;2022-10-04T22:48:45;8.27;93.54
68990;DHT22;56046;47.270;11.368;2022-10-04T22:51:11;8.34;94.03
68990;DHT22;56046;47.270;11.368;2022-10-04T22:53:45;8.30;93.99
68990;DHT22;56046;47.270;11.368;2022-10-04T22:56:13;8.38;93.77
68990;DHT22;56046;47.270;11.368;2022-10-04T22:58:40;8.37;93.28
68990;DHT22;56046;47.270;11.368;2022-10-04T23:01:16;8.37;93.47
68990;DHT22;56046;47.270;11.368;2022-10-04T23:03:47;8.41;93.60
68990;DHT22;56046;47.270;11.368;2022-10-04T23:06:13;8.56;93.18
68990;DHT22;56046;47.270;11.368;2022-10-04T23:08:40;8.47;92.97
68990;DHT22;56046;47.270;11.368;2022-10-04T23:11:06;8.45;93.13
68990;DHT22;56046;47.270;11.368;2022-10-04T23:13:32;8.41;93.43
68990;DHT22;56046;47.270;11.368;2022-10-04T23:16:09;8.47;93.33
68990;DHT22;56046;47.270;11.368;2022-10-04T23:18:35;8.51;93.07
68990;DHT22;56046;47.270;11.368;2022-10-04T23:21:01;8.52;93.09
68990;DHT22;56046;47.270;11.368;2022-10-04T23:23:27;8.51;92.99
68990;DHT22;56046;47.270;11.368;2022-10-04T23:25:54;8.47;93.38
68990;DHT22;56046;47.270;11.368;2022-10-04T23:28:20;8.45;93.34
68990;DHT22;56046;47.270;11.368;2022-10-04T23:31:06;8.49;93.26
68990;DHT22;56046;47.270;11.368;2022-10-04T23:33:34;8.52;93.10
68990;DHT22;56046;47.270;11.368;2022-10-04T23:36:00;8.52;92.98
68990;DHT22;56046;47.270;11.368;2022-10-04T23:38:25;8.52;92.84
68990;DHT22;56046;47.270;11.368;2022-10-04T23:40:53;8.44;92.96
68990;DHT22;56046;47.270;11.368;2022-10-04T23:43:23;8.33;93.36
68990;DHT22;56046;47.270;11.368;2022-10-04T23:45:54;8.26;93.67
68990;DHT22;56046;47.270;11.368;2022-10-04T23:48:25;8.21;93.90
68990;DHT22;56046;47.270;11.368;2022-10-04T23:50:53;8.13;93.99
68990;DHT22;56046;47.270;11.368;2022-10-04T23:53:27;8.04;93.91
68990;DHT22;56046;47.270;11.368;2022-10-04T23:55:57;7.99;93.84
68990;DHT22;56046;47.270;11.368;2022-10-04T23:58:26;7.93;93.90
